GQPA/ATR METAR and TAF weather

Enter ICAO airport designator
Station Type Date Time Source
GQPA METAR 2018/01/23 15:00 UTC NOAA

GQPA 231500Z 10010KT 4000 DU NSC 28/00 Q1017


Station Type Date Time Source
GQPA Decoded METAR 2018/01/23 15:00 UTC NOAA

Atar, Mauritania (GQPA) 20-31N 013-04W 224M
Jan 23, 2018 - 10:00 AM EST / 2018.01.23 1500 UTC
Wind: from the E (100 degrees) at 12 MPH (10 KT):0
Visibility: 2 mile(s):0
Weather: widespread dust
Temperature: 82 F (28 C)
Dew Point: 32 F (0 C)
Relative Humidity: 16%
Pressure (altimeter): 30.03 in. Hg (1017 hPa)
ob: GQPA 231500Z 10010KT 4000 DU NSC 28/00 Q1017
cycle: 15

Station Type Date Time Source
GQPA TAF UTC NOAA

Error!


Example: see airport list